createdAt,value
2018-07-21T00:02:13.734Z,19.40
2018-07-21T00:04:42.839Z,19.40
2018-07-21T00:07:12.294Z,19.50
2018-07-21T00:09:41.514Z,19.50
2018-07-21T00:12:10.715Z,19.60
2018-07-21T00:14:39.835Z,19.60
2018-07-21T00:17:09.180Z,19.70
2018-07-21T00:19:38.317Z,19.70
2018-07-21T00:22:08.114Z,19.70
2018-07-21T00:24:37.203Z,19.70
2018-07-21T00:27:06.423Z,19.80
2018-07-21T00:29:35.634Z,19.80
2018-07-21T00:32:05.023Z,19.80
2018-07-21T00:34:34.084Z,19.80
2018-07-21T00:37:04.015Z,19.80
2018-07-21T00:39:33.308Z,19.70
2018-07-21T00:42:02.603Z,19.70
2018-07-21T00:44:31.759Z,19.70
2018-07-21T00:49:29.869Z,19.70
2018-07-21T00:51:59.029Z,19.60
2018-07-21T00:54:28.379Z,19.60
2018-07-21T00:56:57.669Z,19.70
2018-07-21T00:59:26.909Z,19.60
2018-07-21T01:01:56.127Z,19.60
2018-07-21T01:04:26.120Z,19.50
2018-07-21T01:06:55.319Z,19.50
2018-07-21T01:09:24.366Z,19.50
2018-07-21T01:11:53.792Z,19.50
2018-07-21T01:14:23.045Z,19.50
2018-07-21T01:16:52.819Z,19.50
2018-07-21T01:19:22.164Z,19.40
2018-07-21T01:21:52.110Z,19.40
2018-07-21T01:24:21.206Z,19.30
2018-07-21T01:26:50.497Z,19.30
2018-07-21T01:29:19.795Z,19.30
2018-07-21T01:31:49.125Z,19.30
2018-07-21T01:34:18.508Z,19.20
2018-07-21T01:36:47.735Z,19.20
2018-07-21T01:39:17.052Z,19.20
2018-07-21T01:41:46.454Z,19.20
2018-07-21T01:44:16.245Z,19.30
2018-07-21T01:46:45.840Z,19.30
2018-07-21T01:49:15.169Z,19.30
2018-07-21T01:51:44.344Z,19.30
2018-07-21T01:54:13.630Z,19.30
2018-07-21T01:56:42.753Z,19.20
2018-07-21T01:59:12.076Z,19.20
2018-07-21T02:01:41.294Z,19.10
2018-07-21T02:04:10.552Z,19.10
2018-07-21T02:06:39.690Z,19.00
2018-07-21T02:09:10.237Z,19.00
2018-07-21T02:11:39.606Z,19.00
2018-07-21T02:14:09.329Z,18.90
2018-07-21T02:16:38.502Z,19.00
2018-07-21T02:21:36.689Z,19.00
2018-07-21T02:24:05.976Z,18.90
2018-07-21T02:26:35.174Z,18.90
2018-07-21T02:29:04.485Z,18.90
2018-07-21T02:31:34.692Z,18.90
2018-07-21T02:34:03.944Z,18.80
2018-07-21T02:36:33.073Z,18.80
2018-07-21T02:39:02.340Z,18.80
2018-07-21T02:44:00.321Z,18.70
2018-07-21T02:46:30.336Z,18.60
2018-07-21T02:51:28.063Z,18.50
2018-07-21T02:53:57.272Z,18.40
2018-07-21T02:56:26.483Z,18.30
2018-07-21T02:58:55.654Z,18.20
2018-07-21T03:01:24.875Z,18.20
2018-07-21T03:03:54.421Z,18.10
2018-07-21T03:06:24.101Z,18.00
2018-07-21T03:08:53.298Z,18.00
2018-07-21T03:11:22.618Z,17.90
2018-07-21T03:13:51.813Z,17.80
2018-07-21T03:16:20.933Z,17.70
2018-07-21T03:21:19.081Z,17.60
2018-07-21T03:23:48.226Z,17.50
2018-07-21T03:28:46.375Z,17.40
2018-07-21T03:31:15.600Z,17.30
2018-07-21T03:33:44.679Z,17.30
2018-07-21T03:36:13.829Z,17.20
2018-07-21T03:38:43.067Z,17.20
2018-07-21T03:41:12.223Z,17.20
2018-07-21T03:43:41.446Z,17.10
2018-07-21T03:46:10.619Z,17.10
2018-07-21T03:48:39.784Z,17.20
2018-07-21T03:51:10.056Z,17.10
2018-07-21T03:53:39.493Z,17.10
2018-07-21T03:56:08.711Z,17.10
2018-07-21T03:58:37.968Z,17.10
2018-07-21T04:01:07.981Z,17.10
2018-07-21T04:03:37.133Z,17.10
2018-07-21T04:06:07.478Z,17.10
2018-07-21T04:08:36.893Z,17.10
2018-07-21T04:11:06.082Z,17.10
2018-07-21T04:13:36.003Z,17.10
2018-07-21T04:16:05.564Z,17.10
2018-07-21T04:18:34.821Z,17.10
2018-07-21T04:21:04.811Z,17.10
2018-07-21T04:23:33.975Z,17.10
2018-07-21T04:26:03.078Z,17.10
2018-07-21T04:31:01.611Z,17.20
2018-07-21T04:33:30.839Z,17.20
2018-07-21T04:35:59.968Z,17.20
2018-07-21T04:38:29.330Z,17.30
2018-07-21T04:40:58.648Z,17.30
2018-07-21T04:43:27.838Z,17.30
2018-07-21T04:45:57.875Z,17.30
2018-07-21T04:48:26.993Z,17.40
2018-07-21T04:50:56.233Z,17.50
2018-07-21T04:53:25.413Z,17.50
2018-07-21T04:55:55.116Z,17.50
2018-07-21T04:58:24.689Z,17.60
2018-07-21T05:03:22.632Z,17.70
2018-07-21T05:05:51.865Z,17.70
2018-07-21T05:08:21.182Z,17.80
2018-07-21T05:10:50.470Z,17.90
2018-07-21T05:13:19.603Z,17.90
2018-07-21T05:15:48.767Z,18.00
2018-07-21T05:18:18.920Z,18.00
2018-07-21T05:20:48.038Z,18.10
2018-07-21T05:23:17.408Z,18.20
2018-07-21T05:25:46.783Z,18.30
2018-07-21T05:28:16.201Z,18.30
2018-07-21T05:30:46.241Z,18.30
2018-07-21T05:33:16.029Z,18.30
2018-07-21T05:35:45.127Z,18.30
2018-07-21T05:38:14.442Z,18.40
2018-07-21T05:40:43.699Z,18.50
2018-07-21T05:43:12.883Z,18.60
2018-07-21T05:45:42.192Z,18.70
2018-07-21T05:48:11.488Z,18.80
2018-07-21T05:50:40.811Z,19.00
2018-07-21T05:53:10.725Z,19.10
2018-07-21T05:55:40.009Z,19.10
2018-07-21T05:58:09.746Z,19.20
2018-07-21T06:00:39.261Z,19.40
2018-07-21T06:05:37.169Z,19.70
2018-07-21T06:08:06.437Z,20.00
2018-07-21T06:10:35.650Z,20.30
2018-07-21T06:13:05.029Z,20.60
2018-07-21T06:15:34.459Z,20.80
2018-07-21T06:18:03.898Z,21.00
2018-07-21T06:20:33.135Z,21.20
2018-07-21T06:23:02.341Z,21.40
2018-07-21T06:25:38.120Z,21.60
2018-07-21T06:28:07.297Z,21.70
2018-07-21T06:30:36.557Z,21.70
2018-07-21T06:33:06.090Z,21.80
2018-07-21T06:35:35.694Z,21.80
2018-07-21T06:38:04.974Z,21.90
2018-07-21T06:40:34.185Z,21.70
2018-07-21T06:43:03.357Z,21.60
2018-07-21T06:45:32.621Z,21.50
2018-07-21T06:48:01.758Z,21.50
2018-07-21T06:50:31.006Z,21.60
2018-07-21T06:53:00.226Z,21.50
2018-07-21T06:55:30.238Z,21.60
2018-07-21T06:57:59.464Z,21.70
2018-07-21T07:00:28.675Z,21.70
2018-07-21T07:02:57.768Z,21.70
2018-07-21T07:05:27.084Z,21.70
2018-07-21T07:07:56.226Z,21.80
2018-07-21T07:10:25.482Z,21.90
2018-07-21T07:12:54.618Z,21.80
2018-07-21T07:15:23.848Z,21.90
2018-07-21T07:17:53.038Z,22.10
2018-07-21T07:20:22.374Z,22.30
2018-07-21T07:22:52.223Z,22.50
2018-07-21T07:27:50.616Z,22.90
2018-07-21T07:30:19.956Z,23.10
2018-07-21T07:32:54.187Z,23.20
2018-07-21T07:35:24.316Z,23.40
2018-07-21T07:38:00.271Z,23.50
2018-07-21T07:40:29.598Z,23.40
2018-07-21T07:42:58.678Z,23.50
2018-07-21T07:45:27.918Z,23.50
2018-07-21T07:47:57.310Z,23.40
2018-07-21T07:50:26.384Z,23.40
2018-07-21T07:52:55.587Z,23.50
2018-07-21T07:55:27.001Z,23.60
2018-07-21T07:57:56.231Z,23.60
2018-07-21T08:00:26.385Z,23.70
2018-07-21T08:02:55.516Z,23.80
2018-07-21T08:05:24.730Z,24.10
2018-07-21T08:07:53.984Z,24.20
2018-07-21T08:10:23.203Z,24.10
2018-07-21T08:12:52.857Z,23.90
2018-07-21T08:17:51.967Z,23.90
2018-07-21T08:20:22.466Z,23.90
2018-07-21T08:22:51.610Z,23.90
2018-07-21T08:25:20.767Z,24.10
2018-07-21T08:27:50.127Z,24.20
2018-07-21T08:30:19.229Z,24.40
2018-07-21T08:32:48.562Z,24.40
2018-07-21T08:35:17.924Z,24.60
2018-07-21T08:37:47.157Z,24.40
2018-07-21T08:40:16.989Z,24.30
2018-07-21T08:42:46.307Z,24.30
2018-07-21T08:45:15.595Z,24.30
2018-07-21T08:47:44.863Z,24.30
2018-07-21T08:50:14.773Z,24.20
2018-07-21T08:52:44.126Z,24.10
2018-07-21T08:55:13.513Z,24.00
2018-07-21T08:57:42.602Z,24.00
2018-07-21T09:00:12.146Z,24.10
2018-07-21T09:02:41.643Z,24.30
2018-07-21T09:05:10.860Z,24.30
2018-07-21T09:07:39.972Z,24.40
2018-07-21T09:10:10.222Z,24.40
2018-07-21T09:12:39.661Z,24.20
2018-07-21T09:15:08.887Z,24.10
2018-07-21T09:17:38.046Z,24.20
2018-07-21T09:20:07.241Z,24.30
2018-07-21T09:22:36.361Z,24.50
2018-07-21T09:27:34.520Z,24.70
2018-07-21T09:30:03.664Z,24.70
2018-07-21T09:32:39.757Z,24.80
2018-07-21T09:35:09.926Z,24.80
2018-07-21T09:37:39.380Z,25.00
2018-07-21T09:40:08.811Z,25.20
2018-07-21T09:42:38.008Z,25.40
2018-07-21T09:45:07.312Z,25.40
2018-07-21T09:47:36.414Z,25.60
2018-07-21T09:50:06.854Z,25.70
2018-07-21T09:52:36.107Z,25.80
2018-07-21T09:55:06.649Z,25.80
2018-07-21T09:57:35.979Z,25.90
2018-07-21T10:00:07.241Z,26.00
2018-07-21T10:02:37.247Z,26.10
2018-07-21T10:05:06.430Z,26.10
2018-07-21T10:07:35.989Z,26.10
2018-07-21T10:10:05.325Z,26.10
2018-07-21T10:12:34.964Z,26.10
2018-07-21T10:15:04.342Z,26.30
2018-07-21T10:17:33.544Z,26.40
2018-07-21T10:20:03.144Z,26.50
2018-07-21T10:22:32.343Z,26.60
2018-07-21T10:25:06.830Z,26.70
2018-07-21T10:28:38.954Z,26.60
2018-07-21T10:31:08.220Z,26.70
2018-07-21T10:33:37.726Z,26.90
2018-07-21T10:36:07.260Z,27.00
2018-07-21T10:38:36.483Z,27.00
2018-07-21T10:41:05.552Z,27.20
2018-07-21T10:43:34.888Z,27.50
2018-07-21T10:46:04.073Z,27.70
2018-07-21T10:48:33.239Z,27.50
2018-07-21T10:51:02.459Z,27.50
2018-07-21T10:53:31.676Z,27.60
2018-07-21T10:56:01.038Z,27.30
2018-07-21T10:58:30.217Z,27.00
2018-07-21T11:00:59.374Z,27.10
2018-07-21T11:03:28.525Z,27.10
2018-07-21T11:05:58.432Z,27.10
2018-07-21T11:08:27.675Z,27.10
2018-07-21T11:10:57.272Z,27.20
2018-07-21T11:13:26.624Z,27.10
2018-07-21T11:15:57.572Z,26.90
2018-07-21T11:18:26.911Z,27.00
2018-07-21T11:20:56.172Z,27.00
2018-07-21T11:23:25.534Z,27.10
2018-07-21T11:25:54.919Z,27.20
2018-07-21T11:28:24.068Z,27.40
2018-07-21T11:30:53.412Z,27.20
2018-07-21T11:33:22.494Z,27.30
2018-07-21T11:35:51.876Z,27.50
2018-07-21T11:38:21.575Z,27.70
2018-07-21T11:40:50.881Z,27.60
2018-07-21T11:43:20.107Z,27.60
2018-07-21T11:45:49.292Z,27.70
2018-07-21T11:48:18.520Z,28.00
2018-07-21T11:50:47.798Z,28.50
2018-07-21T11:53:17.032Z,29.20
2018-07-21T11:55:46.145Z,29.70
2018-07-21T11:58:15.392Z,29.80
2018-07-21T12:00:44.624Z,29.70
2018-07-21T12:03:13.776Z,29.50
2018-07-21T12:05:43.534Z,29.60
2018-07-21T12:08:12.539Z,29.20
2018-07-21T12:10:41.857Z,28.90
2018-07-21T12:13:11.214Z,29.10
2018-07-21T12:15:40.480Z,29.10
2018-07-21T12:18:09.594Z,29.10
2018-07-21T12:20:38.678Z,28.90
2018-07-21T12:23:07.892Z,28.80
2018-07-21T12:25:37.285Z,28.90
2018-07-21T12:28:06.359Z,28.70
2018-07-21T12:30:35.591Z,28.70
2018-07-21T12:33:04.826Z,28.90
2018-07-21T12:35:33.916Z,29.10
2018-07-21T12:38:03.120Z,29.10
2018-07-21T12:40:32.272Z,28.90
2018-07-21T12:43:01.415Z,28.70
2018-07-21T12:45:30.628Z,28.60
2018-07-21T12:48:00.507Z,28.50
2018-07-21T12:50:30.686Z,28.60
2018-07-21T12:52:59.884Z,28.70
2018-07-21T12:55:29.163Z,28.80
2018-07-21T12:57:58.347Z,28.80
2018-07-21T13:00:27.585Z,28.80
2018-07-21T13:02:56.806Z,28.80
2018-07-21T13:07:54.678Z,29.10
2018-07-21T13:10:24.238Z,28.90
2018-07-21T13:12:53.431Z,28.90
2018-07-21T13:15:22.596Z,28.90
2018-07-21T13:17:51.880Z,28.90
2018-07-21T13:20:20.989Z,29.10
2018-07-21T13:25:19.138Z,29.10
2018-07-21T13:27:48.265Z,29.30
2018-07-21T13:30:17.613Z,29.40
2018-07-21T13:32:46.867Z,29.50
2018-07-21T13:35:16.155Z,29.70
2018-07-21T13:37:45.366Z,29.50
2018-07-21T13:40:14.565Z,29.60
2018-07-21T13:42:43.648Z,29.80
2018-07-21T13:45:13.560Z,29.90
2018-07-21T13:47:43.403Z,29.80
2018-07-21T13:50:12.522Z,29.50
2018-07-21T13:52:41.660Z,29.60
2018-07-21T13:55:10.847Z,29.70
2018-07-21T13:57:40.090Z,29.60
2018-07-21T14:00:09.392Z,29.20
2018-07-21T14:02:38.553Z,29.00
2018-07-21T14:05:07.861Z,29.30
2018-07-21T14:07:37.203Z,29.80
2018-07-21T14:10:06.555Z,29.90
2018-07-21T14:12:36.031Z,29.90
2018-07-21T14:15:05.991Z,30.10
2018-07-21T14:17:35.309Z,30.10
2018-07-21T14:20:10.262Z,30.20
2018-07-21T14:22:45.192Z,30.30
2018-07-21T14:25:30.571Z,30.20
2018-07-21T14:28:00.028Z,30.20
2018-07-21T14:30:29.270Z,30.20
2018-07-21T14:32:58.475Z,29.70
2018-07-21T14:35:27.612Z,29.70
2018-07-21T14:37:56.912Z,29.60
2018-07-21T14:40:26.325Z,29.60
2018-07-21T14:42:55.540Z,29.50
2018-07-21T14:45:24.830Z,29.40
2018-07-21T14:47:54.135Z,29.50
2018-07-21T14:50:23.555Z,29.40
2018-07-21T14:52:52.889Z,29.40
2018-07-21T14:55:22.159Z,29.30
2018-07-21T14:57:51.476Z,29.20
2018-07-21T15:00:20.603Z,29.20
2018-07-21T15:02:49.874Z,29.50
2018-07-21T15:07:54.601Z,29.60
2018-07-21T15:10:23.779Z,29.40
2018-07-21T15:12:52.985Z,29.50
2018-07-21T15:15:22.182Z,29.60
2018-07-21T15:17:51.390Z,29.30
2018-07-21T15:20:20.624Z,28.90
2018-07-21T15:22:49.786Z,29.10
2018-07-21T15:25:18.913Z,29.30
2018-07-21T15:27:48.058Z,29.20
2018-07-21T15:30:18.099Z,29.00
2018-07-21T15:32:47.493Z,29.10
2018-07-21T15:35:16.749Z,29.10
2018-07-21T15:37:45.984Z,28.90
2018-07-21T15:40:15.077Z,28.90
2018-07-21T15:42:44.132Z,28.80
2018-07-21T15:45:13.463Z,29.00
2018-07-21T15:47:42.560Z,29.10
2018-07-21T15:50:11.827Z,29.00
2018-07-21T15:52:40.974Z,28.80
2018-07-21T15:55:10.643Z,29.00
2018-07-21T15:57:39.867Z,29.20
2018-07-21T16:00:09.142Z,29.10
2018-07-21T16:02:38.339Z,28.80
2018-07-21T16:05:07.572Z,28.60
2018-07-21T16:07:36.973Z,28.60
2018-07-21T16:10:06.257Z,28.40
2018-07-21T16:12:35.528Z,28.30
2018-07-21T16:15:05.451Z,28.20
2018-07-21T16:17:34.616Z,28.10
2018-07-21T16:20:04.170Z,27.90
2018-07-21T16:22:33.550Z,28.00
2018-07-21T16:25:02.808Z,27.70
2018-07-21T16:27:32.119Z,27.60
2018-07-21T16:30:01.888Z,27.60
2018-07-21T16:32:31.139Z,27.50
2018-07-21T16:35:00.303Z,27.50
2018-07-21T16:37:29.375Z,27.60
2018-07-21T16:39:58.562Z,27.70
2018-07-21T16:42:27.801Z,27.90
2018-07-21T16:44:57.120Z,27.80
2018-07-21T16:47:26.407Z,27.60
2018-07-21T16:49:55.802Z,27.70
2018-07-21T16:52:24.869Z,27.80
2018-07-21T16:54:54.537Z,27.90
2018-07-21T16:57:23.869Z,27.90
2018-07-21T16:59:52.994Z,27.90
2018-07-21T17:02:22.228Z,27.80
2018-07-21T17:04:51.947Z,27.70
2018-07-21T17:07:21.217Z,27.70
2018-07-21T17:09:50.447Z,27.80
2018-07-21T17:12:19.543Z,27.70
2018-07-21T17:14:48.884Z,27.60
2018-07-21T17:17:18.014Z,27.60
2018-07-21T17:19:47.250Z,27.40
2018-07-21T17:22:16.350Z,27.20
2018-07-21T17:24:45.681Z,27.00
2018-07-21T17:27:15.257Z,27.00
2018-07-21T17:29:44.649Z,27.00
2018-07-21T17:32:13.733Z,27.00
2018-07-21T17:34:42.892Z,27.10
2018-07-21T17:37:12.102Z,27.00
2018-07-21T17:39:41.315Z,27.20
2018-07-21T17:42:10.735Z,27.40
2018-07-21T17:44:40.485Z,27.70
2018-07-21T17:47:09.557Z,28.00
2018-07-21T17:52:07.539Z,28.00
2018-07-21T17:54:37.841Z,27.70
2018-07-21T17:57:06.955Z,27.50
2018-07-21T17:59:36.095Z,27.70
2018-07-21T18:02:05.319Z,28.00
2018-07-21T18:04:35.184Z,28.10
2018-07-21T18:07:04.405Z,27.70
2018-07-21T18:09:33.612Z,27.20
2018-07-21T18:12:02.856Z,26.80
2018-07-21T18:14:31.913Z,26.60
2018-07-21T18:17:01.009Z,26.30
2018-07-21T18:19:30.097Z,26.20
2018-07-21T18:21:59.305Z,26.10
2018-07-21T18:24:29.142Z,25.90
2018-07-21T18:26:58.312Z,25.80
2018-07-21T18:29:27.523Z,25.70
2018-07-21T18:31:57.625Z,25.60
2018-07-21T18:34:26.786Z,25.50
2018-07-21T18:36:56.045Z,25.40
2018-07-21T18:39:25.324Z,25.30
2018-07-21T18:41:54.637Z,25.20
2018-07-21T18:44:23.748Z,25.10
2018-07-21T18:46:53.337Z,25.00
2018-07-21T18:49:22.756Z,25.00
2018-07-21T18:51:51.947Z,24.90
2018-07-21T18:54:21.237Z,24.80
2018-07-21T18:56:50.500Z,24.70
2018-07-21T18:59:19.638Z,24.60
2018-07-21T19:01:49.297Z,24.60
2018-07-21T19:04:18.474Z,24.50
2018-07-21T19:06:47.873Z,24.40
2018-07-21T19:09:16.955Z,24.30
2018-07-21T19:11:50.418Z,24.10
2018-07-21T19:14:19.604Z,24.00
2018-07-21T19:16:48.956Z,23.90
2018-07-21T19:19:18.256Z,23.80
2018-07-21T19:21:47.997Z,23.70
2018-07-21T19:24:17.164Z,23.50
2018-07-21T19:26:51.494Z,23.40
2018-07-21T19:29:20.786Z,23.30
2018-07-21T19:31:55.289Z,23.20
2018-07-21T19:34:24.390Z,23.10
2018-07-21T19:36:53.518Z,23.00
2018-07-21T19:39:22.613Z,22.90
2018-07-21T19:41:57.120Z,22.90
2018-07-21T19:44:26.486Z,22.80
2018-07-21T19:46:55.733Z,22.70
2018-07-21T19:49:24.965Z,22.60
2018-07-21T19:51:54.081Z,22.50
2018-07-21T19:54:23.420Z,22.50
2018-07-21T19:56:52.946Z,22.30
2018-07-21T19:59:22.218Z,22.20
2018-07-21T20:01:51.402Z,22.10
2018-07-21T20:04:20.660Z,22.00
2018-07-21T20:06:49.786Z,21.90
2018-07-21T20:09:19.162Z,21.80
2018-07-21T20:11:49.084Z,21.80
2018-07-21T20:14:18.321Z,21.60
2018-07-21T20:16:47.490Z,21.60
2018-07-21T20:19:16.680Z,21.50
2018-07-21T20:21:45.815Z,21.50
2018-07-21T20:24:16.082Z,21.40
2018-07-21T20:26:45.226Z,21.30
2018-07-21T20:29:14.409Z,21.20
2018-07-21T20:31:44.578Z,21.10
2018-07-21T20:36:42.751Z,21.00
2018-07-21T20:39:12.296Z,20.90
2018-07-21T20:41:41.573Z,20.90
2018-07-21T20:44:10.752Z,20.80
2018-07-21T20:46:40.273Z,20.80
2018-07-21T20:49:09.653Z,20.80
2018-07-21T20:51:38.814Z,20.70
2018-07-21T20:54:07.997Z,20.70
2018-07-21T20:56:37.210Z,20.60
2018-07-21T20:59:06.443Z,20.60
2018-07-21T21:01:35.579Z,20.50
2018-07-21T21:04:05.824Z,20.40
2018-07-21T21:06:35.055Z,20.40
2018-07-21T21:09:06.002Z,20.30
2018-07-21T21:11:35.144Z,20.30
2018-07-21T21:14:04.613Z,20.20
2018-07-21T21:16:33.742Z,20.10
2018-07-21T21:19:02.912Z,20.10
2018-07-21T21:21:32.329Z,20.00
2018-07-21T21:24:01.550Z,20.00
2018-07-21T21:26:30.866Z,19.90
2018-07-21T21:29:00.130Z,19.80
2018-07-21T21:31:29.314Z,19.80
2018-07-21T21:33:59.001Z,19.70
2018-07-21T21:36:28.132Z,19.70
2018-07-21T21:38:57.312Z,19.60
2018-07-21T21:41:26.514Z,19.60
2018-07-21T21:43:55.662Z,19.50
2018-07-21T21:46:24.916Z,19.40
2018-07-21T21:48:54.210Z,19.40
2018-07-21T21:51:23.558Z,19.40
2018-07-21T21:53:52.865Z,19.30
2018-07-21T21:56:22.164Z,19.20
2018-07-21T21:58:51.358Z,19.10
2018-07-21T22:01:20.728Z,19.10
2018-07-21T22:03:49.916Z,19.00
2018-07-21T22:06:19.189Z,18.90
2018-07-21T22:08:48.287Z,18.90
2018-07-21T22:11:17.483Z,18.80
2018-07-21T22:13:46.794Z,18.80
2018-07-21T22:16:16.100Z,18.70
2018-07-21T22:18:45.259Z,18.70
2018-07-21T22:21:14.988Z,18.60
2018-07-21T22:23:44.088Z,18.60
2018-07-21T22:26:13.865Z,18.50
2018-07-21T22:28:42.976Z,18.50
2018-07-21T22:33:41.067Z,18.40
2018-07-21T22:36:10.144Z,18.30
2018-07-21T22:38:39.359Z,18.30
2018-07-21T22:41:08.476Z,18.20
2018-07-21T22:43:37.987Z,18.20
2018-07-21T22:46:07.077Z,18.20
2018-07-21T22:48:36.257Z,18.10
2018-07-21T22:51:05.642Z,18.10
2018-07-21T22:53:35.004Z,18.00
2018-07-21T22:56:04.121Z,18.00
2018-07-21T22:58:33.476Z,17.90
2018-07-21T23:01:03.076Z,17.90
2018-07-21T23:03:32.173Z,17.90
2018-07-21T23:06:01.250Z,17.80
2018-07-21T23:08:30.440Z,17.80
2018-07-21T23:10:59.795Z,17.80
2018-07-21T23:13:29.062Z,17.70
2018-07-21T23:18:27.068Z,17.70
2018-07-21T23:20:56.437Z,17.70
2018-07-21T23:23:25.953Z,17.60
2018-07-21T23:25:55.198Z,17.60
2018-07-21T23:28:24.256Z,17.50
2018-07-21T23:35:51.031Z,17.40
2018-07-21T23:38:20.433Z,17.40
2018-07-21T23:40:49.649Z,17.40
2018-07-21T23:45:48.235Z,17.30
2018-07-21T23:48:17.641Z,17.20
2018-07-21T23:50:46.907Z,17.20
2018-07-21T23:53:15.976Z,17.10
2018-07-21T23:55:46.056Z,17.10
2018-07-21T23:58:15.375Z,17.10
